sensor_id;sensor_type;location;lat;lon;timestamp;P1;durP1;ratioP1;P2;durP2;ratioP2
15130;SDS011;7666;50.920;4.628;2023-06-01T00:00:06;12.80;;;7.80;;
15130;SDS011;7666;50.920;4.628;2023-06-01T00:02:55;13.03;;;8.27;;
15130;SDS011;7666;50.920;4.628;2023-06-01T00:05:42;16.00;;;8.33;;
15130;SDS011;7666;50.920;4.628;2023-06-01T00:08:27;15.23;;;8.27;;
15130;SDS011;7666;50.920;4.628;2023-06-01T00:11:13;13.67;;;8.43;;
15130;SDS011;7666;50.920;4.628;2023-06-01T00:14:00;12.30;;;7.83;;
15130;SDS011;7666;50.920;4.628;2023-06-01T00:16:46;10.93;;;8.13;;
15130;SDS011;7666;50.920;4.628;2023-06-01T00:19:32;11.43;;;7.97;;
15130;SDS011;7666;50.920;4.628;2023-06-01T00:22:20;10.17;;;8.10;;
15130;SDS011;7666;50.920;4.628;2023-06-01T00:25:06;11.77;;;8.10;;
15130;SDS011;7666;50.920;4.628;2023-06-01T00:27:53;14.37;;;7.93;;
15130;SDS011;7666;50.920;4.628;2023-06-01T00:30:39;9.03;;;7.80;;
15130;SDS011;7666;50.920;4.628;2023-06-01T00:33:25;12.40;;;7.47;;
15130;SDS011;7666;50.920;4.628;2023-06-01T00:36:11;14.17;;;8.43;;
15130;SDS011;7666;50.920;4.628;2023-06-01T00:38:57;13.73;;;8.10;;
15130;SDS011;7666;50.920;4.628;2023-06-01T00:41:47;12.47;;;8.27;;
15130;SDS011;7666;50.920;4.628;2023-06-01T00:44:33;11.97;;;8.60;;
15130;SDS011;7666;50.920;4.628;2023-06-01T00:47:19;9.67;;;7.80;;
15130;SDS011;7666;50.920;4.628;2023-06-01T00:50:05;13.70;;;8.47;;
15130;SDS011;7666;50.920;4.628;2023-06-01T00:52:52;14.07;;;8.40;;
15130;SDS011;7666;50.920;4.628;2023-06-01T00:55:39;14.90;;;9.23;;
15130;SDS011;7666;50.920;4.628;2023-06-01T00:58:25;9.67;;;8.57;;
15130;SDS011;7666;50.920;4.628;2023-06-01T01:01:11;12.53;;;8.63;;
15130;SDS011;7666;50.920;4.628;2023-06-01T01:04:04;12.87;;;8.77;;
15130;SDS011;7666;50.920;4.628;2023-06-01T01:15:44;12.70;;;8.77;;
15130;SDS011;7666;50.920;4.628;2023-06-01T01:21:42;12.57;;;8.77;;
15130;SDS011;7666;50.920;4.628;2023-06-01T01:31:11;12.50;;;9.03;;
15130;SDS011;7666;50.920;4.628;2023-06-01T01:33:58;10.63;;;8.47;;
15130;SDS011;7666;50.920;4.628;2023-06-01T01:36:47;13.50;;;9.70;;
15130;SDS011;7666;50.920;4.628;2023-06-01T01:39:33;13.80;;;9.70;;
15130;SDS011;7666;50.920;4.628;2023-06-01T01:42:19;12.03;;;9.33;;
15130;SDS011;7666;50.920;4.628;2023-06-01T01:45:05;11.90;;;9.57;;
15130;SDS011;7666;50.920;4.628;2023-06-01T01:50:50;13.40;;;9.77;;
15130;SDS011;7666;50.920;4.628;2023-06-01T01:53:45;13.70;;;10.00;;
15130;SDS011;7666;50.920;4.628;2023-06-01T01:56:36;14.60;;;9.40;;
15130;SDS011;7666;50.920;4.628;2023-06-01T01:59:22;15.50;;;10.17;;
15130;SDS011;7666;50.920;4.628;2023-06-01T02:02:09;15.20;;;9.60;;
15130;SDS011;7666;50.920;4.628;2023-06-01T02:04:55;12.53;;;9.90;;
15130;SDS011;7666;50.920;4.628;2023-06-01T02:07:41;12.73;;;10.20;;
15130;SDS011;7666;50.920;4.628;2023-06-01T02:10:28;12.33;;;10.03;;
15130;SDS011;7666;50.920;4.628;2023-06-01T02:13:14;11.47;;;9.70;;
15130;SDS011;7666;50.920;4.628;2023-06-01T02:16:00;14.43;;;10.70;;
15130;SDS011;7666;50.920;4.628;2023-06-01T02:18:46;14.77;;;11.20;;
15130;SDS011;7666;50.920;4.628;2023-06-01T02:21:32;15.73;;;11.23;;
15130;SDS011;7666;50.920;4.628;2023-06-01T02:24:18;16.70;;;11.07;;
15130;SDS011;7666;50.920;4.628;2023-06-01T02:27:04;17.17;;;10.97;;
15130;SDS011;7666;50.920;4.628;2023-06-01T02:29:50;13.63;;;12.07;;
15130;SDS011;7666;50.920;4.628;2023-06-01T02:32:36;13.87;;;11.70;;
15130;SDS011;7666;50.920;4.628;2023-06-01T02:35:22;14.17;;;11.27;;
15130;SDS011;7666;50.920;4.628;2023-06-01T02:38:09;14.07;;;12.33;;
15130;SDS011;7666;50.920;4.628;2023-06-01T02:40:55;14.90;;;12.57;;
15130;SDS011;7666;50.920;4.628;2023-06-01T02:43:41;15.17;;;11.80;;
15130;SDS011;7666;50.920;4.628;2023-06-01T02:46:27;15.37;;;12.60;;
15130;SDS011;7666;50.920;4.628;2023-06-01T02:49:13;19.73;;;13.47;;
15130;SDS011;7666;50.920;4.628;2023-06-01T02:51:59;18.90;;;12.30;;
15130;SDS011;7666;50.920;4.628;2023-06-01T02:54:45;17.13;;;13.23;;
15130;SDS011;7666;50.920;4.628;2023-06-01T02:57:31;16.60;;;12.87;;
15130;SDS011;7666;50.920;4.628;2023-06-01T03:00:17;18.13;;;13.70;;
15130;SDS011;7666;50.920;4.628;2023-06-01T03:03:03;19.57;;;13.27;;
15130;SDS011;7666;50.920;4.628;2023-06-01T03:05:49;17.27;;;13.30;;
15130;SDS011;7666;50.920;4.628;2023-06-01T03:08:35;17.40;;;13.53;;
15130;SDS011;7666;50.920;4.628;2023-06-01T03:11:21;21.67;;;14.27;;
15130;SDS011;7666;50.920;4.628;2023-06-01T03:14:08;16.40;;;14.00;;
15130;SDS011;7666;50.920;4.628;2023-06-01T03:16:54;17.70;;;13.30;;
15130;SDS011;7666;50.920;4.628;2023-06-01T03:19:40;18.67;;;13.70;;
15130;SDS011;7666;50.920;4.628;2023-06-01T03:22:26;19.67;;;14.50;;
15130;SDS011;7666;50.920;4.628;2023-06-01T03:25:12;16.53;;;14.03;;
15130;SDS011;7666;50.920;4.628;2023-06-01T03:27:58;16.90;;;14.17;;
15130;SDS011;7666;50.920;4.628;2023-06-01T03:30:44;20.17;;;14.27;;
15130;SDS011;7666;50.920;4.628;2023-06-01T03:33:32;20.27;;;14.83;;
15130;SDS011;7666;50.920;4.628;2023-06-01T03:36:18;17.67;;;14.43;;
15130;SDS011;7666;50.920;4.628;2023-06-01T03:39:04;21.57;;;14.73;;
15130;SDS011;7666;50.920;4.628;2023-06-01T03:41:53;21.03;;;15.57;;
15130;SDS011;7666;50.920;4.628;2023-06-01T03:44:39;21.20;;;15.37;;
15130;SDS011;7666;50.920;4.628;2023-06-01T03:47:28;21.00;;;15.13;;
15130;SDS011;7666;50.920;4.628;2023-06-01T03:50:14;18.33;;;15.07;;
15130;SDS011;7666;50.920;4.628;2023-06-01T03:53:00;19.33;;;15.27;;
15130;SDS011;7666;50.920;4.628;2023-06-01T03:55:46;20.90;;;15.80;;
15130;SDS011;7666;50.920;4.628;2023-06-01T03:58:33;22.40;;;16.33;;
15130;SDS011;7666;50.920;4.628;2023-06-01T04:01:19;20.63;;;15.90;;
15130;SDS011;7666;50.920;4.628;2023-06-01T04:04:05;21.83;;;16.60;;
15130;SDS011;7666;50.920;4.628;2023-06-01T04:06:53;22.03;;;16.60;;
15130;SDS011;7666;50.920;4.628;2023-06-01T04:09:42;22.70;;;17.10;;
15130;SDS011;7666;50.920;4.628;2023-06-01T04:12:29;20.30;;;16.27;;
15130;SDS011;7666;50.920;4.628;2023-06-01T04:15:15;19.03;;;17.07;;
15130;SDS011;7666;50.920;4.628;2023-06-01T04:18:02;24.57;;;17.27;;
15130;SDS011;7666;50.920;4.628;2023-06-01T04:20:48;19.73;;;16.43;;
15130;SDS011;7666;50.920;4.628;2023-06-01T04:23:35;21.97;;;16.80;;
15130;SDS011;7666;50.920;4.628;2023-06-01T04:26:22;22.80;;;16.53;;
15130;SDS011;7666;50.920;4.628;2023-06-01T04:29:10;21.80;;;17.07;;
15130;SDS011;7666;50.920;4.628;2023-06-01T04:31:57;25.43;;;18.07;;
15130;SDS011;7666;50.920;4.628;2023-06-01T04:34:43;20.70;;;16.27;;
15130;SDS011;7666;50.920;4.628;2023-06-01T04:37:33;23.10;;;17.20;;
15130;SDS011;7666;50.920;4.628;2023-06-01T04:40:20;25.07;;;18.13;;
15130;SDS011;7666;50.920;4.628;2023-06-01T04:43:06;21.07;;;17.53;;
15130;SDS011;7666;50.920;4.628;2023-06-01T04:45:54;22.13;;;17.60;;
15130;SDS011;7666;50.920;4.628;2023-06-01T04:48:41;21.50;;;17.97;;
15130;SDS011;7666;50.920;4.628;2023-06-01T04:51:30;30.27;;;19.23;;
15130;SDS011;7666;50.920;4.628;2023-06-01T04:54:16;23.43;;;18.50;;
15130;SDS011;7666;50.920;4.628;2023-06-01T04:57:04;23.03;;;19.57;;
15130;SDS011;7666;50.920;4.628;2023-06-01T04:59:51;22.93;;;19.10;;
15130;SDS011;7666;50.920;4.628;2023-06-01T05:02:42;24.77;;;18.63;;
15130;SDS011;7666;50.920;4.628;2023-06-01T05:05:29;22.43;;;18.33;;
15130;SDS011;7666;50.920;4.628;2023-06-01T05:08:15;23.70;;;19.83;;
15130;SDS011;7666;50.920;4.628;2023-06-01T05:11:01;28.07;;;20.27;;
15130;SDS011;7666;50.920;4.628;2023-06-01T05:13:48;26.17;;;19.57;;
15130;SDS011;7666;50.920;4.628;2023-06-01T05:16:34;25.17;;;19.83;;
15130;SDS011;7666;50.920;4.628;2023-06-01T05:19:20;25.70;;;20.83;;
15130;SDS011;7666;50.920;4.628;2023-06-01T05:22:06;26.90;;;20.07;;
15130;SDS011;7666;50.920;4.628;2023-06-01T05:24:52;26.43;;;20.70;;
15130;SDS011;7666;50.920;4.628;2023-06-01T05:27:38;25.87;;;21.17;;
15130;SDS011;7666;50.920;4.628;2023-06-01T05:30:24;28.17;;;21.17;;
15130;SDS011;7666;50.920;4.628;2023-06-01T05:33:10;25.17;;;20.83;;
15130;SDS011;7666;50.920;4.628;2023-06-01T05:35:56;23.53;;;19.63;;
15130;SDS011;7666;50.920;4.628;2023-06-01T05:38:42;23.93;;;19.53;;
15130;SDS011;7666;50.920;4.628;2023-06-01T05:41:28;23.57;;;19.50;;
15130;SDS011;7666;50.920;4.628;2023-06-01T05:44:14;25.80;;;20.00;;
15130;SDS011;7666;50.920;4.628;2023-06-01T05:47:00;24.10;;;19.03;;
15130;SDS011;7666;50.920;4.628;2023-06-01T05:49:46;25.47;;;18.70;;
15130;SDS011;7666;50.920;4.628;2023-06-01T05:52:33;25.53;;;19.43;;
15130;SDS011;7666;50.920;4.628;2023-06-01T05:55:19;23.03;;;19.57;;
15130;SDS011;7666;50.920;4.628;2023-06-01T05:58:05;24.13;;;20.03;;
15130;SDS011;7666;50.920;4.628;2023-06-01T06:00:51;23.30;;;20.80;;
15130;SDS011;7666;50.920;4.628;2023-06-01T06:03:38;27.87;;;23.03;;
15130;SDS011;7666;50.920;4.628;2023-06-01T06:06:25;26.77;;;22.50;;
15130;SDS011;7666;50.920;4.628;2023-06-01T06:09:11;25.77;;;20.97;;
15130;SDS011;7666;50.920;4.628;2023-06-01T06:11:58;29.00;;;20.63;;
15130;SDS011;7666;50.920;4.628;2023-06-01T06:14:45;22.23;;;19.20;;
15130;SDS011;7666;50.920;4.628;2023-06-01T06:17:31;22.10;;;19.00;;
15130;SDS011;7666;50.920;4.628;2023-06-01T06:20:17;21.20;;;18.73;;
15130;SDS011;7666;50.920;4.628;2023-06-01T06:23:07;19.27;;;16.93;;
15130;SDS011;7666;50.920;4.628;2023-06-01T06:25:53;18.97;;;15.93;;
15130;SDS011;7666;50.920;4.628;2023-06-01T06:28:39;18.77;;;16.10;;
15130;SDS011;7666;50.920;4.628;2023-06-01T06:31:25;19.43;;;15.60;;
15130;SDS011;7666;50.920;4.628;2023-06-01T06:34:11;19.70;;;15.20;;
15130;SDS011;7666;50.920;4.628;2023-06-01T06:36:58;18.20;;;14.97;;
15130;SDS011;7666;50.920;4.628;2023-06-01T06:39:44;18.67;;;14.40;;
15130;SDS011;7666;50.920;4.628;2023-06-01T06:42:30;15.00;;;13.30;;
15130;SDS011;7666;50.920;4.628;2023-06-01T06:45:16;17.80;;;14.40;;
15130;SDS011;7666;50.920;4.628;2023-06-01T06:48:03;15.43;;;13.77;;
15130;SDS011;7666;50.920;4.628;2023-06-01T06:50:49;16.27;;;13.20;;
15130;SDS011;7666;50.920;4.628;2023-06-01T06:53:35;18.87;;;13.77;;
15130;SDS011;7666;50.920;4.628;2023-06-01T06:56:21;20.57;;;15.77;;
15130;SDS011;7666;50.920;4.628;2023-06-01T06:59:07;18.70;;;14.90;;
15130;SDS011;7666;50.920;4.628;2023-06-01T07:01:53;17.80;;;14.80;;
15130;SDS011;7666;50.920;4.628;2023-06-01T07:04:39;16.63;;;14.87;;
15130;SDS011;7666;50.920;4.628;2023-06-01T07:07:25;19.67;;;14.07;;
15130;SDS011;7666;50.920;4.628;2023-06-01T07:10:12;20.83;;;14.00;;
15130;SDS011;7666;50.920;4.628;2023-06-01T07:12:58;18.53;;;14.13;;
15130;SDS011;7666;50.920;4.628;2023-06-01T07:15:44;19.63;;;13.90;;
15130;SDS011;7666;50.920;4.628;2023-06-01T07:18:30;21.93;;;14.17;;
15130;SDS011;7666;50.920;4.628;2023-06-01T07:21:16;19.30;;;14.77;;
15130;SDS011;7666;50.920;4.628;2023-06-01T07:24:02;18.13;;;14.53;;
15130;SDS011;7666;50.920;4.628;2023-06-01T07:26:49;17.67;;;13.53;;
15130;SDS011;7666;50.920;4.628;2023-06-01T07:29:36;15.67;;;12.80;;
15130;SDS011;7666;50.920;4.628;2023-06-01T07:32:23;17.50;;;13.83;;
15130;SDS011;7666;50.920;4.628;2023-06-01T07:35:10;14.83;;;12.67;;
15130;SDS011;7666;50.920;4.628;2023-06-01T07:37:57;18.03;;;13.30;;
15130;SDS011;7666;50.920;4.628;2023-06-01T07:40:43;16.50;;;12.53;;
15130;SDS011;7666;50.920;4.628;2023-06-01T07:43:29;15.67;;;12.43;;
15130;SDS011;7666;50.920;4.628;2023-06-01T07:46:15;17.07;;;12.80;;
15130;SDS011;7666;50.920;4.628;2023-06-01T07:49:01;18.67;;;12.93;;
15130;SDS011;7666;50.920;4.628;2023-06-01T07:51:48;14.57;;;12.30;;
15130;SDS011;7666;50.920;4.628;2023-06-01T07:54:36;14.03;;;11.00;;
15130;SDS011;7666;50.920;4.628;2023-06-01T07:57:23;12.80;;;11.10;;
15130;SDS011;7666;50.920;4.628;2023-06-01T08:00:09;11.50;;;10.30;;
15130;SDS011;7666;50.920;4.628;2023-06-01T08:02:57;12.20;;;10.43;;
15130;SDS011;7666;50.920;4.628;2023-06-01T08:05:44;12.77;;;10.43;;
15130;SDS011;7666;50.920;4.628;2023-06-01T08:08:30;12.80;;;10.00;;
15130;SDS011;7666;50.920;4.628;2023-06-01T08:11:17;15.07;;;10.70;;
15130;SDS011;7666;50.920;4.628;2023-06-01T08:14:03;13.43;;;11.03;;
15130;SDS011;7666;50.920;4.628;2023-06-01T08:16:52;16.37;;;11.57;;
15130;SDS011;7666;50.920;4.628;2023-06-01T08:19:39;16.47;;;11.33;;
15130;SDS011;7666;50.920;4.628;2023-06-01T08:22:27;13.37;;;11.17;;
15130;SDS011;7666;50.920;4.628;2023-06-01T08:25:14;16.77;;;11.40;;
15130;SDS011;7666;50.920;4.628;2023-06-01T08:28:00;15.57;;;11.53;;
15130;SDS011;7666;50.920;4.628;2023-06-01T08:30:46;16.97;;;11.63;;
15130;SDS011;7666;50.920;4.628;2023-06-01T08:33:32;14.93;;;11.57;;
15130;SDS011;7666;50.920;4.628;2023-06-01T08:36:18;15.47;;;11.77;;
15130;SDS011;7666;50.920;4.628;2023-06-01T08:39:21;14.67;;;10.80;;
15130;SDS011;7666;50.920;4.628;2023-06-01T08:42:08;15.53;;;11.53;;
15130;SDS011;7666;50.920;4.628;2023-06-01T08:44:59;16.20;;;11.13;;
15130;SDS011;7666;50.920;4.628;2023-06-01T08:47:50;14.77;;;11.70;;
15130;SDS011;7666;50.920;4.628;2023-06-01T08:50:38;12.90;;;11.27;;
15130;SDS011;7666;50.920;4.628;2023-06-01T08:53:25;14.03;;;11.03;;
15130;SDS011;7666;50.920;4.628;2023-06-01T08:56:14;16.90;;;11.67;;
15130;SDS011;7666;50.920;4.628;2023-06-01T08:59:00;13.73;;;11.37;;
15130;SDS011;7666;50.920;4.628;2023-06-01T09:01:46;15.73;;;11.37;;
15130;SDS011;7666;50.920;4.628;2023-06-01T09:04:33;13.50;;;10.97;;
15130;SDS011;7666;50.920;4.628;2023-06-01T09:07:27;14.97;;;11.17;;
15130;SDS011;7666;50.920;4.628;2023-06-01T09:10:15;13.57;;;10.90;;
15130;SDS011;7666;50.920;4.628;2023-06-01T09:13:07;14.40;;;11.00;;
15130;SDS011;7666;50.920;4.628;2023-06-01T09:15:53;12.83;;;10.40;;
15130;SDS011;7666;50.920;4.628;2023-06-01T09:18:54;13.30;;;10.43;;
15130;SDS011;7666;50.920;4.628;2023-06-01T09:21:40;13.83;;;10.40;;
15130;SDS011;7666;50.920;4.628;2023-06-01T09:24:40;14.20;;;9.83;;
15130;SDS011;7666;50.920;4.628;2023-06-01T09:30:40;13.50;;;10.27;;
15130;SDS011;7666;50.920;4.628;2023-06-01T09:33:27;11.43;;;10.07;;
15130;SDS011;7666;50.920;4.628;2023-06-01T09:36:23;14.57;;;10.77;;
15130;SDS011;7666;50.920;4.628;2023-06-01T09:39:12;14.77;;;10.93;;
15130;SDS011;7666;50.920;4.628;2023-06-01T09:42:00;13.07;;;10.83;;
15130;SDS011;7666;50.920;4.628;2023-06-01T09:44:47;11.70;;;10.30;;
15130;SDS011;7666;50.920;4.628;2023-06-01T09:47:33;11.83;;;10.30;;
15130;SDS011;7666;50.920;4.628;2023-06-01T09:50:31;11.33;;;9.70;;
15130;SDS011;7666;50.920;4.628;2023-06-01T09:53:23;13.03;;;10.97;;
15130;SDS011;7666;50.920;4.628;2023-06-01T09:56:10;14.70;;;10.60;;
15130;SDS011;7666;50.920;4.628;2023-06-01T09:58:57;15.10;;;10.87;;
15130;SDS011;7666;50.920;4.628;2023-06-01T10:01:44;13.10;;;10.90;;
15130;SDS011;7666;50.920;4.628;2023-06-01T10:04:37;11.67;;;10.47;;
15130;SDS011;7666;50.920;4.628;2023-06-01T10:07:26;15.50;;;11.57;;
15130;SDS011;7666;50.920;4.628;2023-06-01T10:10:14;16.07;;;11.20;;
15130;SDS011;7666;50.920;4.628;2023-06-01T10:13:01;12.53;;;10.53;;
15130;SDS011;7666;50.920;4.628;2023-06-01T10:15:48;14.20;;;11.50;;
15130;SDS011;7666;50.920;4.628;2023-06-01T10:18:34;13.67;;;11.10;;
15130;SDS011;7666;50.920;4.628;2023-06-01T10:21:21;15.90;;;10.73;;
15130;SDS011;7666;50.920;4.628;2023-06-01T10:24:07;14.40;;;10.77;;
15130;SDS011;7666;50.920;4.628;2023-06-01T10:29:52;16.87;;;11.87;;
15130;SDS011;7666;50.920;4.628;2023-06-01T10:32:46;13.53;;;10.50;;
15130;SDS011;7666;50.920;4.628;2023-06-01T10:38:28;16.73;;;12.07;;
15130;SDS011;7666;50.920;4.628;2023-06-01T10:41:27;14.40;;;11.77;;
15130;SDS011;7666;50.920;4.628;2023-06-01T10:50:09;17.13;;;13.00;;
15130;SDS011;7666;50.920;4.628;2023-06-01T10:52:56;14.60;;;11.23;;
15130;SDS011;7666;50.920;4.628;2023-06-01T10:59:12;16.20;;;11.73;;
15130;SDS011;7666;50.920;4.628;2023-06-01T11:02:01;14.80;;;12.10;;
15130;SDS011;7666;50.920;4.628;2023-06-01T11:04:49;15.37;;;12.17;;
15130;SDS011;7666;50.920;4.628;2023-06-01T11:07:35;12.03;;;10.67;;
15130;SDS011;7666;50.920;4.628;2023-06-01T11:13:39;14.90;;;11.57;;
15130;SDS011;7666;50.920;4.628;2023-06-01T11:16:27;15.13;;;11.77;;
15130;SDS011;7666;50.920;4.628;2023-06-01T11:19:17;16.33;;;12.27;;
15130;SDS011;7666;50.920;4.628;2023-06-01T11:22:09;18.43;;;13.77;;
15130;SDS011;7666;50.920;4.628;2023-06-01T11:24:57;15.70;;;13.67;;
15130;SDS011;7666;50.920;4.628;2023-06-01T11:27:44;18.03;;;13.83;;
15130;SDS011;7666;50.920;4.628;2023-06-01T11:30:31;16.67;;;13.57;;
15130;SDS011;7666;50.920;4.628;2023-06-01T11:33:20;16.43;;;13.50;;
15130;SDS011;7666;50.920;4.628;2023-06-01T11:36:10;15.90;;;12.43;;
15130;SDS011;7666;50.920;4.628;2023-06-01T11:38:59;15.80;;;13.20;;
15130;SDS011;7666;50.920;4.628;2023-06-01T11:41:45;17.77;;;13.17;;
15130;SDS011;7666;50.920;4.628;2023-06-01T11:44:32;15.30;;;12.33;;
15130;SDS011;7666;50.920;4.628;2023-06-01T11:47:19;17.90;;;12.47;;
15130;SDS011;7666;50.920;4.628;2023-06-01T11:50:05;16.83;;;12.80;;
15130;SDS011;7666;50.920;4.628;2023-06-01T11:52:52;14.10;;;11.20;;
15130;SDS011;7666;50.920;4.628;2023-06-01T11:55:47;14.00;;;11.43;;
15130;SDS011;7666;50.920;4.628;2023-06-01T11:58:34;14.57;;;12.07;;
15130;SDS011;7666;50.920;4.628;2023-06-01T12:01:21;15.37;;;12.37;;
15130;SDS011;7666;50.920;4.628;2023-06-01T12:07:04;18.50;;;12.30;;
15130;SDS011;7666;50.920;4.628;2023-06-01T12:09:51;15.70;;;11.50;;
15130;SDS011;7666;50.920;4.628;2023-06-01T12:12:39;16.23;;;12.80;;
15130;SDS011;7666;50.920;4.628;2023-06-01T12:15:25;16.80;;;13.00;;
15130;SDS011;7666;50.920;4.628;2023-06-01T12:18:12;16.40;;;13.20;;
15130;SDS011;7666;50.920;4.628;2023-06-01T12:20:58;13.87;;;12.27;;
15130;SDS011;7666;50.920;4.628;2023-06-01T12:23:50;21.23;;;13.47;;
15130;SDS011;7666;50.920;4.628;2023-06-01T12:26:39;16.33;;;13.10;;
15130;SDS011;7666;50.920;4.628;2023-06-01T12:29:38;18.17;;;11.70;;
15130;SDS011;7666;50.920;4.628;2023-06-01T12:32:38;13.37;;;11.50;;
15130;SDS011;7666;50.920;4.628;2023-06-01T12:35:24;13.40;;;11.37;;
15130;SDS011;7666;50.920;4.628;2023-06-01T12:38:10;15.40;;;11.73;;
15130;SDS011;7666;50.920;4.628;2023-06-01T12:41:10;14.50;;;11.90;;
15130;SDS011;7666;50.920;4.628;2023-06-01T12:43:57;15.53;;;11.47;;
15130;SDS011;7666;50.920;4.628;2023-06-01T12:46:43;12.70;;;10.87;;
15130;SDS011;7666;50.920;4.628;2023-06-01T12:49:29;13.33;;;10.40;;
15130;SDS011;7666;50.920;4.628;2023-06-01T12:52:15;15.47;;;11.10;;
15130;SDS011;7666;50.920;4.628;2023-06-01T12:55:01;14.67;;;10.67;;
15130;SDS011;7666;50.920;4.628;2023-06-01T12:57:52;11.33;;;10.13;;
15130;SDS011;7666;50.920;4.628;2023-06-01T13:00:39;15.50;;;9.43;;
15130;SDS011;7666;50.920;4.628;2023-06-01T13:03:25;13.23;;;10.03;;
15130;SDS011;7666;50.920;4.628;2023-06-01T13:06:11;14.53;;;9.50;;
15130;SDS011;7666;50.920;4.628;2023-06-01T13:08:57;12.13;;;8.83;;
15130;SDS011;7666;50.920;4.628;2023-06-01T13:11:43;14.17;;;9.53;;
15130;SDS011;7666;50.920;4.628;2023-06-01T13:14:29;12.43;;;9.30;;
15130;SDS011;7666;50.920;4.628;2023-06-01T13:17:15;13.00;;;9.63;;
15130;SDS011;7666;50.920;4.628;2023-06-01T13:20:01;12.23;;;7.93;;
15130;SDS011;7666;50.920;4.628;2023-06-01T13:22:49;10.80;;;9.40;;
15130;SDS011;7666;50.920;4.628;2023-06-01T13:25:35;11.50;;;8.53;;
15130;SDS011;7666;50.920;4.628;2023-06-01T13:28:22;12.90;;;8.50;;
15130;SDS011;7666;50.920;4.628;2023-06-01T13:31:08;11.33;;;8.73;;
15130;SDS011;7666;50.920;4.628;2023-06-01T13:33:54;14.77;;;8.93;;
15130;SDS011;7666;50.920;4.628;2023-06-01T13:36:41;10.63;;;8.70;;
15130;SDS011;7666;50.920;4.628;2023-06-01T13:39:27;13.40;;;9.03;;
15130;SDS011;7666;50.920;4.628;2023-06-01T13:42:13;10.03;;;8.00;;
15130;SDS011;7666;50.920;4.628;2023-06-01T13:44:59;12.07;;;8.93;;
15130;SDS011;7666;50.920;4.628;2023-06-01T13:47:45;11.57;;;8.70;;
15130;SDS011;7666;50.920;4.628;2023-06-01T13:50:31;12.73;;;9.87;;
15130;SDS011;7666;50.920;4.628;2023-06-01T13:53:17;12.23;;;8.33;;
15130;SDS011;7666;50.920;4.628;2023-06-01T13:56:03;12.23;;;8.10;;
15130;SDS011;7666;50.920;4.628;2023-06-01T13:58:49;11.10;;;8.47;;
15130;SDS011;7666;50.920;4.628;2023-06-01T14:01:35;14.07;;;10.67;;
15130;SDS011;7666;50.920;4.628;2023-06-01T14:04:21;15.43;;;10.23;;
15130;SDS011;7666;50.920;4.628;2023-06-01T14:07:07;15.03;;;10.63;;
15130;SDS011;7666;50.920;4.628;2023-06-01T14:09:54;13.20;;;9.60;;
15130;SDS011;7666;50.920;4.628;2023-06-01T14:12:40;15.63;;;10.43;;
15130;SDS011;7666;50.920;4.628;2023-06-01T14:15:26;17.67;;;10.30;;
15130;SDS011;7666;50.920;4.628;2023-06-01T14:18:12;12.57;;;8.87;;
15130;SDS011;7666;50.920;4.628;2023-06-01T14:20:58;15.47;;;9.03;;
15130;SDS011;7666;50.920;4.628;2023-06-01T14:23:45;14.27;;;9.17;;
15130;SDS011;7666;50.920;4.628;2023-06-01T14:26:31;11.87;;;9.27;;
15130;SDS011;7666;50.920;4.628;2023-06-01T14:29:17;14.00;;;8.33;;
15130;SDS011;7666;50.920;4.628;2023-06-01T14:32:03;11.17;;;8.50;;
15130;SDS011;7666;50.920;4.628;2023-06-01T14:34:49;14.03;;;8.13;;
15130;SDS011;7666;50.920;4.628;2023-06-01T14:37:35;9.73;;;6.83;;
15130;SDS011;7666;50.920;4.628;2023-06-01T14:40:21;12.47;;;7.87;;
15130;SDS011;7666;50.920;4.628;2023-06-01T14:43:07;10.57;;;6.13;;
15130;SDS011;7666;50.920;4.628;2023-06-01T14:45:53;10.37;;;7.37;;
15130;SDS011;7666;50.920;4.628;2023-06-01T14:48:39;10.43;;;6.50;;
15130;SDS011;7666;50.920;4.628;2023-06-01T14:51:27;10.50;;;6.67;;
15130;SDS011;7666;50.920;4.628;2023-06-01T14:54:12;11.70;;;6.57;;
15130;SDS011;7666;50.920;4.628;2023-06-01T14:56:58;9.43;;;6.30;;
15130;SDS011;7666;50.920;4.628;2023-06-01T14:59:46;9.60;;;6.60;;
15130;SDS011;7666;50.920;4.628;2023-06-01T15:02:32;10.17;;;6.60;;
15130;SDS011;7666;50.920;4.628;2023-06-01T15:05:18;7.47;;;5.50;;
15130;SDS011;7666;50.920;4.628;2023-06-01T15:08:05;9.07;;;6.10;;
15130;SDS011;7666;50.920;4.628;2023-06-01T15:10:52;9.87;;;6.00;;
15130;SDS011;7666;50.920;4.628;2023-06-01T15:13:38;10.13;;;6.53;;
15130;SDS011;7666;50.920;4.628;2023-06-01T15:16:24;11.03;;;5.80;;
15130;SDS011;7666;50.920;4.628;2023-06-01T15:19:12;10.43;;;6.13;;
15130;SDS011;7666;50.920;4.628;2023-06-01T15:21:58;7.67;;;6.13;;
15130;SDS011;7666;50.920;4.628;2023-06-01T15:24:43;8.53;;;5.93;;
15130;SDS011;7666;50.920;4.628;2023-06-01T15:27:29;11.67;;;5.30;;
15130;SDS011;7666;50.920;4.628;2023-06-01T15:30:16;8.43;;;5.67;;
15130;SDS011;7666;50.920;4.628;2023-06-01T15:33:03;8.17;;;5.80;;
15130;SDS011;7666;50.920;4.628;2023-06-01T15:35:49;11.53;;;6.20;;
15130;SDS011;7666;50.920;4.628;2023-06-01T15:38:35;9.77;;;6.13;;
15130;SDS011;7666;50.920;4.628;2023-06-01T15:41:21;7.87;;;5.53;;
15130;SDS011;7666;50.920;4.628;2023-06-01T15:44:07;8.97;;;5.47;;
15130;SDS011;7666;50.920;4.628;2023-06-01T15:46:53;7.77;;;6.10;;
15130;SDS011;7666;50.920;4.628;2023-06-01T15:49:39;12.83;;;6.40;;
15130;SDS011;7666;50.920;4.628;2023-06-01T15:52:26;10.80;;;5.70;;
15130;SDS011;7666;50.920;4.628;2023-06-01T15:55:12;10.20;;;6.23;;
15130;SDS011;7666;50.920;4.628;2023-06-01T15:57:58;12.20;;;6.87;;
15130;SDS011;7666;50.920;4.628;2023-06-01T16:00:44;8.87;;;6.83;;
15130;SDS011;7666;50.920;4.628;2023-06-01T16:03:30;8.37;;;7.07;;
15130;SDS011;7666;50.920;4.628;2023-06-01T16:06:16;9.13;;;5.93;;
15130;SDS011;7666;50.920;4.628;2023-06-01T16:09:02;10.43;;;6.17;;
15130;SDS011;7666;50.920;4.628;2023-06-01T16:11:48;12.47;;;7.23;;
15130;SDS011;7666;50.920;4.628;2023-06-01T16:14:34;14.80;;;8.20;;
15130;SDS011;7666;50.920;4.628;2023-06-01T16:17:20;10.57;;;7.13;;
15130;SDS011;7666;50.920;4.628;2023-06-01T16:20:06;10.27;;;7.30;;
15130;SDS011;7666;50.920;4.628;2023-06-01T16:22:53;12.70;;;7.33;;
15130;SDS011;7666;50.920;4.628;2023-06-01T16:25:39;10.07;;;6.30;;
15130;SDS011;7666;50.920;4.628;2023-06-01T16:28:25;12.57;;;7.80;;
15130;SDS011;7666;50.920;4.628;2023-06-01T16:31:11;10.57;;;6.87;;
15130;SDS011;7666;50.920;4.628;2023-06-01T16:33:57;12.87;;;7.30;;
15130;SDS011;7666;50.920;4.628;2023-06-01T16:36:43;10.60;;;7.20;;
15130;SDS011;7666;50.920;4.628;2023-06-01T16:39:29;9.37;;;7.27;;
15130;SDS011;7666;50.920;4.628;2023-06-01T16:42:15;14.60;;;7.73;;
15130;SDS011;7666;50.920;4.628;2023-06-01T16:45:01;10.50;;;7.40;;
15130;SDS011;7666;50.920;4.628;2023-06-01T16:47:47;14.53;;;7.37;;
15130;SDS011;7666;50.920;4.628;2023-06-01T16:50:33;12.77;;;7.60;;
15130;SDS011;7666;50.920;4.628;2023-06-01T16:53:19;12.70;;;7.00;;
15130;SDS011;7666;50.920;4.628;2023-06-01T16:56:05;10.73;;;7.70;;
15130;SDS011;7666;50.920;4.628;2023-06-01T16:58:51;11.90;;;7.13;;
15130;SDS011;7666;50.920;4.628;2023-06-01T17:01:37;11.73;;;7.20;;
15130;SDS011;7666;50.920;4.628;2023-06-01T17:04:23;10.27;;;7.80;;
15130;SDS011;7666;50.920;4.628;2023-06-01T17:07:10;11.53;;;8.43;;
15130;SDS011;7666;50.920;4.628;2023-06-01T17:09:56;12.20;;;7.67;;
15130;SDS011;7666;50.920;4.628;2023-06-01T17:12:42;8.90;;;7.03;;
15130;SDS011;7666;50.920;4.628;2023-06-01T17:15:27;13.27;;;7.57;;
15130;SDS011;7666;50.920;4.628;2023-06-01T17:18:13;13.30;;;8.27;;
15130;SDS011;7666;50.920;4.628;2023-06-01T17:21:00;10.67;;;7.93;;
15130;SDS011;7666;50.920;4.628;2023-06-01T17:23:46;11.50;;;7.80;;